Time;durP1;ratioP1;P1;durP2;ratioP2;P2;SDS_P1;SDS_P2;PMS_P1;PMS_P2;Temp;Humidity;BMP_temperature;BMP_pressure;BME280_temperature;BME280_humidity;BME280_pressure;Samples;Min_cycle;Max_cycle;Signal;HPM_P1;HPM_P2
2023/10/10 00:02:42;;;;;;;3.95;2.92;;;;;;;3.99;68.54;98603.50;4849957;29;20143;-94
2023/10/10 00:05:12;;;;;;;3.63;2.72;;;;;;;3.68;68.69;98569.78;4866081;29;20035;-96
2023/10/10 00:08:01;;;;;;;3.45;2.47;;;;;;;4.02;68.38;98631.88;4902085;29;20048;-94
2023/10/10 00:10:34;;;;;;;3.40;2.47;;;;;;;3.61;68.20;98569.28;4884883;29;20055;-95
2023/10/10 00:13:23;;;;;;;3.00;2.25;;;;;;;3.92;68.28;98645.50;4881320;29;20064;-93
2023/10/10 00:16:37;;;;;;;4.85;2.60;;;;;;;3.67;68.40;98606.00;4852684;29;20049;-95
2023/10/10 00:19:12;;;;;;;3.90;2.70;;;;;;;3.45;68.89;98587.56;4828470;29;20195;-95
2023/10/10 00:21:38;;;;;;;3.65;2.58;;;;;;;3.32;68.99;98563.91;4814832;29;20053;-94
2023/10/10 00:24:30;;;;;;;4.03;2.63;;;;;;;3.89;68.78;98649.56;4844051;29;20085;-96
2023/10/10 00:27:12;;;;;;;7.15;2.63;;;;;;;3.54;69.01;98602.06;4862231;29;20061;-93
2023/10/10 00:29:43;;;;;;;3.72;2.60;;;;;;;3.85;68.50;98628.81;4875569;29;20071;-95
2023/10/10 00:32:22;;;;;;;3.42;2.70;;;;;;;3.59;68.22;98583.09;4897284;23;20044;-93
2023/10/10 00:34:50;;;;;;;6.28;3.10;;;;;;;3.91;68.11;98620.38;4908666;29;20052;-93
2023/10/10 00:37:21;;;;;;;4.28;2.78;;;;;;;4.35;67.99;98686.97;4910855;29;20091;-93
2023/10/10 00:40:00;;;;;;;3.40;2.50;;;;;;;3.87;67.93;98619.31;4964966;23;20044;-92
2023/10/10 00:42:36;;;;;;;3.47;2.60;;;;;;;4.15;68.20;98638.50;4881805;29;20026;-94
2023/10/10 00:45:21;;;;;;;4.30;3.05;;;;;;;3.96;67.55;98612.19;4877436;29;20117;-95
2023/10/10 00:47:53;;;;;;;3.65;2.88;;;;;;;3.78;67.74;98591.31;4861619;29;20049;-93
2023/10/10 00:50:25;;;;;;;4.03;2.85;;;;;;;3.85;67.64;98602.59;4838667;29;20087;-95
2023/10/10 00:53:12;;;;;;;3.78;2.78;;;;;;;4.06;67.75;98646.44;4855164;29;20053;-96
2023/10/10 00:55:39;;;;;;;3.88;2.63;;;;;;;4.20;67.98;98687.13;4842108;29;20052;-92
2023/10/10 00:58:08;;;;;;;4.38;3.10;;;;;;;3.63;68.01;98577.94;4858041;29;20076;-96
2023/10/10 01:00:42;;;;;;;8.07;3.20;;;;;;;4.01;68.46;98662.72;4856660;29;20057;-95
2023/10/10 01:03:20;;;;;;;4.15;3.05;;;;;;;4.07;68.57;98672.38;4858237;29;20049;-94
2023/10/10 01:05:55;;;;;;;3.42;2.72;;;;;;;3.69;68.52;98618.13;4843823;29;20675;-96
2023/10/10 01:08:31;;;;;;;4.25;3.05;;;;;;;3.62;68.42;98608.75;4858534;29;20045;-95
2023/10/10 01:11:02;;;;;;;4.38;3.00;;;;;;;3.87;68.09;98651.75;4837096;29;20494;-94
2023/10/10 01:13:30;;;;;;;3.95;2.45;;;;;;;3.67;67.67;98595.19;4840018;29;20049;-94
2023/10/10 01:15:59;;;;;;;4.03;2.63;;;;;;;4.04;67.83;98653.22;4825864;29;20021;-94
2023/10/10 01:18:28;;;;;;;4.63;3.03;;;;;;;4.05;67.74;98662.97;4854659;29;20516;-95
2023/10/10 01:20:57;;;;;;;3.67;2.60;;;;;;;3.74;67.59;98612.69;4871695;29;20049;-95
2023/10/10 01:23:28;;;;;;;4.07;2.58;;;;;;;3.84;67.94;98644.22;4841737;29;20053;-96
2023/10/10 01:26:05;;;;;;;4.50;3.10;;;;;;;3.70;67.93;98605.44;4888006;29;20056;-95
2023/10/10 01:28:33;;;;;;;;;;;;;;;4.37;67.76;98714.56;4856959;29;20073;-93
2023/10/10 01:31:07;;;;;;;4.57;2.97;;;;;;;4.27;67.73;98676.75;4854515;29;19935;-95
2023/10/10 01:33:36;;;;;;;5.28;2.78;;;;;;;3.94;67.05;98617.09;4865154;29;20053;-95
2023/10/10 01:36:12;;;;;;;3.63;2.60;;;;;;;4.53;66.57;98715.19;4887137;29;20105;-94
2023/10/10 01:38:55;;;;;;;3.00;2.22;;;;;;;3.94;66.77;98637.88;4858105;29;20054;-95
2023/10/10 01:41:24;;;;;;;3.13;2.20;;;;;;;3.68;66.88;98604.91;4879596;29;20115;-93
2023/10/10 01:43:54;;;;;;;3.20;2.40;;;;;;;3.76;66.71;98631.31;4861535;29;20109;-93
2023/10/10 01:46:29;;;;;;;5.05;2.47;;;;;;;4.38;66.66;98724.28;4877877;29;20116;-94
2023/10/10 01:48:56;;;;;;;3.42;2.17;;;;;;;4.05;66.13;98642.13;4877027;29;20040;-94
2023/10/10 01:51:28;;;;;;;2.70;1.90;;;;;;;4.02;65.90;98668.94;4854538;29;20058;-91
2023/10/10 01:53:58;;;;;;;3.45;2.55;;;;;;;4.36;66.43;98728.38;4838742;29;20030;-93
2023/10/10 01:56:28;;;;;;;3.67;2.35;;;;;;;3.65;66.19;98609.00;4832766;29;20042;-94
2023/10/10 01:58:54;;;;;;;2.35;1.95;;;;;;;3.86;65.74;98652.03;4816744;29;20019;-93
2023/10/10 02:01:23;;;;;;;3.20;2.20;;;;;;;3.91;66.26;98663.63;4837972;29;20055;-92
2023/10/10 02:10:23;;;;;;;6.50;2.80;;;;;;;4.04;66.38;98636.97;4831256;29;20041;-94
2023/10/10 02:12:47;;;;;;;5.55;3.03;;;;;;;4.07;66.69;98642.63;4818970;29;20109;-96
2023/10/10 02:15:18;;;;;;;;;;;;;;;4.81;66.93;98734.38;4822231;29;20129;-95
2023/10/10 02:18:03;;;;;;;5.78;3.40;;;;;;;4.16;66.62;98632.00;4868633;29;19924;-95
2023/10/10 02:25:36;;;;;;;9.10;3.40;;;;;;;4.12;66.85;98653.41;4858364;29;20038;-96
2023/10/10 02:30:45;;;;;;;4.50;2.92;;;;;;;4.29;66.15;98677.28;4877564;29;20040;-94
2023/10/10 02:35:55;;;;;;;3.22;2.40;;;;;;;4.40;65.69;98688.81;4872118;29;20102;-94
2023/10/10 02:38:39;;;;;;;4.40;2.85;;;;;;;4.25;65.93;98662.75;4867138;29;20068;-94
2023/10/10 02:41:37;;;;;;;3.78;2.38;;;;;;;4.50;65.34;98693.31;4877118;29;20037;-96
2023/10/10 02:44:09;;;;;;;4.38;2.67;;;;;;;4.09;65.42;98645.84;4871479;29;20045;-95
2023/10/10 02:46:42;;;;;;;3.63;2.50;;;;;;;4.51;66.29;98689.53;4884215;29;20048;-95
2023/10/10 02:49:32;;;;;;;4.53;3.20;;;;;;;4.36;65.34;98658.00;4860581;29;20045;-96
2023/10/10 02:52:06;;;;;;;4.03;2.83;;;;;;;4.29;66.00;98679.19;4856779;29;20042;-94
2023/10/10 02:54:34;;;;;;;4.15;3.25;;;;;;;4.21;66.14;98656.28;4855316;29;20052;-96
2023/10/10 03:03:02;;;;;;;4.35;2.97;;;;;;;4.29;66.57;98693.53;4819761;29;20082;-92
2023/10/10 03:05:43;;;;;;;5.18;3.30;;;;;;;4.04;66.40;98650.50;4843658;29;20045;-94
2023/10/10 03:08:15;;;;;;;4.47;3.00;;;;;;;4.53;66.22;98719.78;4835691;29;20049;-94
2023/10/10 03:10:53;;;;;;;4.45;2.88;;;;;;;4.03;66.14;98665.13;4851161;29;20060;-94
2023/10/10 03:13:47;;;;;;;5.15;2.95;;;;;;;4.07;66.12;98649.94;4849837;29;20106;-95
2023/10/10 03:16:41;;;;;;;5.13;2.97;;;;;;;4.53;66.46;98717.09;4861570;29;20053;-94
2023/10/10 03:19:36;;;;;;;9.68;3.22;;;;;;;4.45;65.77;98703.09;4848793;29;20025;-95
2023/10/10 03:22:28;;;;;;;5.35;3.00;;;;;;;4.59;66.19;98724.84;4861870;29;20049;-96
2023/10/10 03:25:20;;;;;;;3.67;2.72;;;;;;;4.34;65.29;98665.59;4841939;29;20046;-95
2023/10/10 03:33:16;;;;;;;4.63;3.35;;;;;;;4.05;66.62;98692.72;4853760;29;20064;-95
2023/10/10 03:36:22;;;;;;;4.78;3.00;;;;;;;4.41;66.54;98739.16;4867888;29;20056;-94
2023/10/10 05:23:51;;;;;;;4.78;3.03;;;;;;;4.48;65.90;98797.25;4888967;29;20057;-92
2023/10/10 05:26:20;;;;;;;4.60;2.95;;;;;;;4.74;65.62;98851.16;4861109;29;21871;-92
2023/10/10 05:28:46;;;;;;;4.35;2.60;;;;;;;5.06;65.34;98901.19;4853939;29;20060;-92
2023/10/10 05:31:18;;;;;;;5.28;2.90;;;;;;;5.14;65.07;98909.50;4875851;29;20057;-92
2023/10/10 05:33:44;;;;;;;3.88;2.85;;;;;;;5.01;65.06;98874.16;4872813;29;20060;-94
2023/10/10 05:36:13;;;;;;;7.93;3.40;;;;;;;5.07;64.64;98887.38;4875074;29;20056;-93
2023/10/10 05:38:39;;;;;;;3.65;2.50;;;;;;;5.10;64.67;98911.19;4857555;29;20048;-92
2023/10/10 05:41:07;;;;;;;3.15;2.35;;;;;;;4.77;65.19;98895.78;4879037;29;20048;-93
2023/10/10 05:43:34;;;;;;;4.13;2.83;;;;;;;4.65;65.73;98885.34;4875542;29;20052;-92
2023/10/10 05:46:05;;;;;;;8.32;2.80;;;;;;;4.83;65.98;98913.59;4890232;29;20055;-89
2023/10/10 05:48:35;;;;;;;5.40;2.72;;;;;;;4.64;65.86;98870.19;4884927;29;20045;-89
2023/10/10 05:51:03;;;;;;;3.85;2.60;;;;;;;4.75;65.61;98874.41;4870225;29;20069;-90
2023/10/10 05:53:33;;;;;;;4.70;3.17;;;;;;;4.68;65.57;98876.66;4866933;29;20038;-89
2023/10/10 05:56:12;;;;;;;3.95;2.80;;;;;;;4.85;65.99;98893.25;4870021;29;20117;-89
2023/10/10 05:58:45;;;;;;;3.97;2.85;;;;;;;4.92;65.72;98901.06;4896247;29;20041;-91
2023/10/10 06:01:14;;;;;;;4.32;2.63;;;;;;;4.77;65.19;98895.78;4841532;29;20108;-87
2023/10/10 06:03:44;;;;;;;3.67;2.60;;;;;;;4.89;65.72;98902.44;4842884;29;20044;-90
2023/10/10 06:06:13;;;;;;;10.20;2.90;;;;;;;4.99;66.59;98901.53;4867282;29;20053;-88
2023/10/10 06:08:43;;;;;;;4.05;2.75;;;;;;;4.88;67.03;98857.50;4865985;29;20093;-88
2023/10/10 06:11:10;;;;;;;4.50;2.70;;;;;;;5.09;66.85;98878.94;4843685;29;20554;-88
2023/10/10 06:13:39;;;;;;;6.72;3.20;;;;;;;5.33;65.64;98928.56;4864434;29;20037;-88
2023/10/10 06:16:12;;;;;;;4.30;2.83;;;;;;;5.53;67.28;98946.50;4862717;29;20077;-88
2023/10/10 06:18:44;;;;;;;3.38;2.72;;;;;;;5.36;66.97;98917.13;4853843;29;20033;-91
2023/10/10 06:21:11;;;;;;;6.88;3.17;;;;;;;5.28;67.46;98898.78;4882714;29;20041;-88
2023/10/10 06:23:41;;;;;;;5.55;3.78;;;;;;;5.29;67.64;98915.84;4898408;29;20029;-87
2023/10/10 06:26:08;;;;;;;8.57;3.80;;;;;;;5.33;67.83;98944.81;4885095;29;20025;-90
2023/10/10 06:28:35;;;;;;;5.47;3.47;;;;;;;5.25;67.75;98914.81;4884290;29;20049;-88
2023/10/10 06:31:03;;;;;;;3.72;2.70;;;;;;;5.22;67.21;98932.44;4881660;29;20045;-88
2023/10/10 06:33:29;;;;;;;5.50;3.10;;;;;;;5.20;67.47;98934.66;4895067;29;20419;-88
2023/10/10 06:39:32;;;;;;;7.30;3.22;;;;;;;4.87;67.79;98936.31;4901013;29;19924;-88
2023/10/10 06:44:05;;;;;;;5.63;2.75;;;;;;;4.88;67.99;98943.34;4869512;29;20041;-87
2023/10/10 06:46:32;;;;;;;4.72;2.92;;;;;;;4.99;68.69;98971.16;4870385;29;20037;-87
2023/10/10 06:49:04;;;;;;;4.43;2.97;;;;;;;4.94;68.67;98959.28;4861249;29;20074;-91
2023/10/10 06:51:33;;;;;;;6.22;3.00;;;;;;;4.77;68.48;98931.81;4870971;29;20040;-87
2023/10/10 06:54:03;;;;;;;4.30;3.28;;;;;;;4.69;67.90;98932.41;4852458;29;20461;-91
2023/10/10 06:56:44;;;;;;;4.80;3.50;;;;;;;4.91;68.46;98954.41;4856963;29;20034;-90
2023/10/10 06:59:20;;;;;;;4.30;2.72;;;;;;;4.80;68.23;98938.53;4852607;29;20565;-89
2023/10/10 07:01:46;;;;;;;7.00;3.80;;;;;;;4.79;68.29;98913.34;4853290;29;20049;-89
2023/10/10 07:04:13;;;;;;;4.97;3.28;;;;;;;5.16;68.26;98982.38;4869973;29;20054;-87
2023/10/10 07:06:45;;;;;;;5.53;3.08;;;;;;;5.14;67.90;98984.56;4847669;29;20408;-91
2023/10/10 07:09:14;;;;;;;5.88;3.10;;;;;;;4.76;68.39;98941.00;4865529;29;20045;-88
2023/10/10 07:11:45;;;;;;;4.85;3.42;;;;;;;4.70;67.94;98934.84;4861393;29;20034;-89
2023/10/10 07:14:15;;;;;;;9.00;3.47;;;;;;;4.80;68.20;98947.50;4882478;29;20052;-87
2023/10/10 07:16:44;;;;;;;5.30;3.30;;;;;;;4.91;68.64;98949.00;4837907;29;20042;-88
2023/10/10 07:19:19;;;;;;;4.60;3.13;;;;;;;4.84;67.99;98940.41;4863229;29;20093;-89
2023/10/10 07:21:47;;;;;;;6.32;3.10;;;;;;;4.82;67.86;98949.91;4886667;29;20041;-89
2023/10/10 07:24:15;;;;;;;3.83;2.65;;;;;;;5.12;68.73;99000.28;4875112;29;20077;-90
2023/10/10 07:26:43;;;;;;;6.35;3.40;;;;;;;4.83;69.11;98938.78;4878351;29;20030;-90
2023/10/10 07:29:26;;;;;;;8.52;3.33;;;;;;;5.34;69.39;98987.06;4859207;29;20106;-90
2023/10/10 07:31:54;;;;;;;5.65;3.28;;;;;;;5.14;69.05;98957.47;4864813;29;20033;-89
2023/10/10 07:34:34;;;;;;;5.88;3.70;;;;;;;5.15;69.48;98954.47;4861365;29;20069;-89
2023/10/10 07:37:08;;;;;;;5.13;2.58;;;;;;;5.13;68.17;98980.22;4851793;29;20136;-87
2023/10/10 07:39:55;;;;;;;5.53;2.72;;;;;;;5.04;68.49;98992.78;4871537;29;20053;-88
2023/10/10 07:42:27;;;;;;;;;;;;;;;5.25;69.00;99013.19;4849937;29;20026;-91
2023/10/10 07:45:13;;;;;;;8.07;4.25;;;;;;;5.13;67.85;98970.22;4861916;29;19992;-93
2023/10/10 07:50:35;;;;;;;5.70;3.00;;;;;;;5.69;68.30;99023.03;4850637;29;19924;-93
2023/10/10 07:53:12;;;;;;;4.70;3.17;;;;;;;5.63;67.62;99025.00;4858483;29;20170;-93
2023/10/10 07:55:53;;;;;;;5.93;2.90;;;;;;;5.62;67.76;99036.13;4842526;29;20049;-91
2023/10/10 07:58:23;;;;;;;3.63;2.63;;;;;;;5.01;67.93;98947.31;4859772;29;20044;-91
2023/10/10 08:01:09;;;;;;;6.93;3.75;;;;;;;5.19;68.25;98976.38;4854402;29;20045;-89
2023/10/10 08:03:44;;;;;;;8.07;3.20;;;;;;;5.34;68.03;99006.03;4853588;29;20037;-88
2023/10/10 08:06:16;;;;;;;9.40;3.70;;;;;;;5.39;67.92;99027.66;4869553;29;20057;-88
2023/10/10 08:08:48;;;;;;;5.55;3.20;;;;;;;4.90;68.51;98969.06;4853484;29;20052;-91
2023/10/10 08:11:25;;;;;;;3.75;3.00;;;;;;;4.86;67.99;98940.91;4850910;29;20045;-92
2023/10/10 08:13:51;;;;;;;6.50;3.40;;;;;;;5.20;67.81;99010.53;4835754;29;20056;-89
2023/10/10 08:16:20;;;;;;;5.18;3.70;;;;;;;5.15;68.27;98978.84;4851862;29;20105;-91
2023/10/10 08:19:06;;;;;;;7.13;3.65;;;;;;;5.46;68.21;98999.41;4859035;29;20050;-89
2023/10/10 08:21:38;;;;;;;5.95;3.58;;;;;;;5.36;67.42;98992.19;4846744;29;20061;-88
2023/10/10 08:24:08;;;;;;;7.40;3.65;;;;;;;5.47;68.79;99028.16;4842400;29;20049;-89
2023/10/10 08:26:41;;;;;;;5.80;3.25;;;;;;;5.08;68.44;98994.63;4854559;29;20078;-90
2023/10/10 08:29:09;;;;;;;6.32;3.25;;;;;;;5.49;68.73;99050.34;4853908;29;20041;-87
2023/10/10 08:31:38;;;;;;;5.63;3.65;;;;;;;5.00;68.56;98960.03;4867222;29;20069;-91
2023/10/10 08:34:09;;;;;;;12.57;3.45;;;;;;;5.09;67.84;99020.63;4870504;29;20065;-89
2023/10/10 08:36:43;;;;;;;7.25;4.22;;;;;;;5.45;68.39;99052.84;4844177;29;20113;-91
2023/10/10 08:41:44;;;;;;;5.28;3.55;;;;;;;5.25;66.73;99023.22;4896760;29;20133;-87
2023/10/10 08:44:22;;;;;;;6.80;3.63;;;;;;;5.40;67.58;99064.53;4887967;29;20045;-89
2023/10/10 08:46:52;;;;;;;7.85;3.13;;;;;;;4.82;66.73;98985.09;4861107;29;20100;-90
2023/10/10 08:49:23;;;;;;;6.40;3.38;;;;;;;4.72;67.85;98986.00;4851479;29;20044;-91
2023/10/10 08:52:00;;;;;;;5.57;2.92;;;;;;;4.97;67.88;99012.06;4851715;29;20057;-90
2023/10/10 08:54:27;;;;;;;6.80;3.40;;;;;;;5.33;66.20;99042.38;4869051;29;20053;-90
2023/10/10 08:57:24;;;;;;;5.00;3.10;;;;;;;5.08;67.33;99023.63;4845127;29;20054;-90
2023/10/10 08:59:42;;;;;;;4.65;3.00;;;;;;;4.69;66.97;98981.94;4852600;29;20057;-91
2023/10/10 09:02:20;;;;;;;4.97;2.92;;;;;;;4.97;67.22;99012.06;4869232;29;20057;-92
2023/10/10 09:04:55;;;;;;;5.20;3.28;;;;;;;5.24;66.58;99048.69;4864294;29;20144;-91
2023/10/10 09:07:27;;;;;;;4.63;3.10;;;;;;;5.01;66.98;99029.38;4871727;29;20056;-90
2023/10/10 09:10:06;;;;;;;4.28;2.78;;;;;;;4.93;65.38;99032.66;4869824;29;20085;-92
2023/10/10 09:12:52;;;;;;;5.55;3.13;;;;;;;4.77;66.44;99001.38;4874404;29;20033;-91
2023/10/10 09:15:20;;;;;;;12.68;3.80;;;;;;;5.40;65.05;99086.22;4839547;29;20045;-91
2023/10/10 09:17:48;;;;;;;5.70;3.03;;;;;;;5.59;65.57;99101.78;4846960;29;20033;-89
2023/10/10 09:20:46;;;;;;;6.20;3.08;;;;;;;5.38;64.36;99020.63;4836509;29;20052;-91
2023/10/10 09:23:26;;;;;;;4.50;3.10;;;;;;;5.62;65.07;99053.19;4853652;29;20054;-89
2023/10/10 09:26:19;;;;;;;5.22;2.53;;;;;;;5.80;64.35;99097.78;4861439;29;20042;-91
2023/10/10 09:28:49;;;;;;;9.35;2.75;;;;;;;5.36;63.60;99058.09;4867678;29;20094;-90
2023/10/10 09:31:26;;;;;;;5.32;2.90;;;;;;;5.40;63.96;99048.28;4878572;29;20032;-91
2023/10/10 09:34:03;;;;;;;3.90;2.70;;;;;;;5.65;64.08;99103.34;4885763;29;20060;-90
2023/10/10 09:36:37;;;;;;;4.10;2.65;;;;;;;5.50;64.44;99098.88;4915573;29;20028;-90
2023/10/10 09:39:36;;;;;;;5.50;3.20;;;;;;;5.02;64.37;99006.59;4885255;29;20045;-91
2023/10/10 09:42:23;;;;;;;12.70;4.35;;;;;;;5.39;63.93;99041.22;4866348;29;20048;-91
2023/10/10 09:45:16;;;;;;;7.45;3.67;;;;;;;5.57;64.70;99052.47;4867898;29;20032;-91
2023/10/10 09:48:06;;;;;;;7.68;3.30;;;;;;;5.79;63.04;99066.31;4897710;29;20056;-93
2023/10/10 09:50:45;;;;;;;6.10;3.28;;;;;;;6.03;63.75;99100.84;4871302;29;20021;-90
2023/10/10 09:53:40;;;;;;;9.47;2.90;;;;;;;5.65;63.76;99040.97;4876148;29;20043;-90
2023/10/10 09:56:09;;;;;;;4.28;2.80;;;;;;;5.96;63.87;99086.78;4846746;29;20072;-89
2023/10/10 09:58:43;;;;;;;7.18;2.85;;;;;;;5.93;63.14;99090.91;4856061;29;20041;-89
2023/10/10 10:01:27;;;;;;;3.60;2.70;;;;;;;5.64;63.57;99074.63;4874870;29;20017;-89
2023/10/10 10:04:03;;;;;;;3.85;2.70;;;;;;;5.78;63.71;99091.81;4875110;29;20148;-91
2023/10/10 10:07:12;;;;;;;6.15;2.88;;;;;;;6.18;64.17;99130.50;4891840;29;20040;-91
2023/10/10 10:10:01;;;;;;;7.25;3.00;;;;;;;6.25;61.87;99133.69;4889310;29;20455;-88
2023/10/10 10:13:13;;;;;;;6.82;2.33;;;;;;;5.87;62.21;99065.69;4884538;29;20037;-92
2023/10/10 10:16:25;;;;;;;5.05;3.00;;;;;;;6.42;61.82;99140.56;4853889;29;20131;-89
2023/10/10 10:19:11;;;;;;;4.45;2.63;;;;;;;5.85;62.06;99065.16;4901088;29;20061;-91
2023/10/10 10:22:05;;;;;;;4.57;2.72;;;;;;;6.29;62.54;99102.16;4883469;29;20048;-90
2023/10/10 10:24:50;;;;;;;4.10;2.53;;;;;;;5.91;61.54;99056.97;4884545;29;20065;-90
2023/10/10 10:27:43;;;;;;;;;;;;;;;6.33;60.65;99145.84;4887132;29;20081;-92
2023/10/10 10:32:47;;;;;;;3.88;2.40;;;;;;;5.63;60.38;99073.00;4913470;29;20040;-91
2023/10/10 10:35:47;;;;;;;4.68;2.10;;;;;;;5.65;60.18;99085.16;4882321;29;20045;-91
2023/10/10 10:38:23;;;;;;;3.17;2.40;;;;;;;5.78;60.76;99102.69;4828791;29;20133;-93
2023/10/10 10:40:51;;;;;;;4.38;2.30;;;;;;;5.93;61.45;99119.91;4836724;29;20042;-90
2023/10/10 10:43:38;;;;;;;4.95;2.70;;;;;;;5.91;61.91;99092.25;4793149;29;20088;-92
2023/10/10 10:46:15;;;;;;;4.93;2.85;;;;;;;6.09;59.55;99114.06;4801900;29;20062;-91
2023/10/10 10:48:54;;;;;;;5.00;2.88;;;;;;;5.87;58.60;99044.00;4864065;29;20083;-89
2023/10/10 10:54:08;;;;;;;8.02;2.58;;;;;;;6.53;58.41;99112.19;4834290;29;20121;-90
2023/10/10 10:59:19;;;;;;;5.20;2.77;;;;;;;6.53;58.54;99102.13;4822307;29;20074;-91
2023/10/10 11:02:28;;;;;;;8.40;2.80;;;;;;;6.94;58.49;99169.50;4860239;29;20351;-91
2023/10/10 11:04:54;;;;;;;4.90;2.60;;;;;;;6.65;56.90;99142.44;4858853;29;20086;-93
2023/10/10 11:07:29;;;;;;;4.22;2.70;;;;;;;6.67;57.14;99132.09;4816991;29;20050;-93
2023/10/10 11:10:06;;;;;;;6.82;2.67;;;;;;;6.85;57.35;99171.25;4814347;29;20055;-91
2023/10/10 11:12:36;;;;;;;11.18;2.70;;;;;;;6.69;57.30;99161.66;4817184;29;20589;-93
2023/10/10 11:15:16;;;;;;;5.22;2.95;;;;;;;6.38;57.18;99110.47;4813654;29;20058;-90
2023/10/10 11:17:53;;;;;;;4.05;3.08;;;;;;;6.43;57.76;99115.84;4811960;29;20050;-91
2023/10/10 11:23:15;;;;;;;4.78;2.40;;;;;;;6.59;57.22;99149.06;4820124;29;20062;-91
2023/10/10 11:25:58;;;;;;;3.67;2.20;;;;;;;6.50;56.89;99150.78;4815137;29;20069;-90
2023/10/10 11:28:36;;;;;;;4.97;2.40;;;;;;;6.41;56.82;99166.91;4822925;29;20054;-92
2023/10/10 11:31:07;;;;;;;2.65;2.05;;;;;;;6.28;57.20;99138.53;4820504;29;20057;-94
2023/10/10 11:34:09;;;;;;;4.45;2.70;;;;;;;6.68;56.75;99193.47;4838261;29;20050;-93
2023/10/10 11:36:42;;;;;;;3.55;2.42;;;;;;;5.89;56.37;99109.63;4810574;29;20080;-91
2023/10/10 11:39:31;;;;;;;3.65;2.22;;;;;;;6.11;57.12;99119.19;4826321;29;20084;-91
2023/10/10 11:42:00;;;;;;;5.70;2.42;;;;;;;5.97;56.53;99120.97;4826356;29;20069;-91
2023/10/10 11:44:30;;;;;;;8.00;2.55;;;;;;;6.11;56.72;99154.47;4839368;29;20050;-90
2023/10/10 11:47:04;;;;;;;7.90;2.80;;;;;;;6.32;57.86;99182.19;4851177;29;20045;-90
2023/10/10 11:49:37;;;;;;;4.00;2.13;;;;;;;6.20;56.36;99158.19;4838435;29;20042;-93
2023/10/10 11:52:19;;;;;;;6.13;2.63;;;;;;;6.34;56.64;99174.59;4857088;29;20067;-94
2023/10/10 11:54:45;;;;;;;5.07;2.70;;;;;;;6.47;56.95;99216.53;4865706;29;20134;-91
2023/10/10 11:57:15;;;;;;;3.97;2.40;;;;;;;6.26;55.96;99158.94;4866266;29;20049;-93
2023/10/10 11:59:44;;;;;;;7.13;2.35;;;;;;;6.11;56.41;99113.75;4872594;29;20044;-92
2023/10/10 12:02:16;;;;;;;6.63;2.80;;;;;;;6.53;55.56;99197.19;4863010;29;20053;-92
2023/10/10 12:04:47;;;;;;;4.28;2.50;;;;;;;6.02;56.33;99124.44;4865059;29;20116;-91
2023/10/10 12:07:18;;;;;;;11.35;2.33;;;;;;;6.17;55.63;99142.47;4903295;29;20132;-93
2023/10/10 12:09:48;;;;;;;4.50;2.40;;;;;;;6.39;55.04;99179.13;4838901;29;20049;-92
2023/10/10 12:12:16;;;;;;;7.32;2.08;;;;;;;6.10;54.44;99142.81;4861003;29;20045;-92
2023/10/10 12:14:42;;;;;;;9.18;2.17;;;;;;;6.37;54.35;99181.34;4864615;29;20419;-90
2023/10/10 12:17:08;;;;;;;8.90;2.50;;;;;;;6.16;54.31;99170.72;4881502;29;20044;-93
2023/10/10 12:19:45;;;;;;;11.57;2.90;;;;;;;6.22;54.17;99187.75;4886059;29;20076;-91
2023/10/10 12:22:15;;;;;;;8.00;2.30;;;;;;;6.33;53.88;99205.56;4882022;29;20048;-92
2023/10/10 12:24:41;;;;;;;3.45;1.83;;;;;;;5.88;54.10;99145.97;4859779;29;20088;-92
2023/10/10 12:27:10;;;;;;;3.03;2.20;;;;;;;5.96;55.16;99184.47;4866115;29;20032;-93
2023/10/10 12:29:41;;;;;;;3.45;1.92;;;;;;;5.84;55.17;99177.47;4885816;29;20045;-93
2023/10/10 12:32:15;;;;;;;7.63;2.40;;;;;;;6.31;55.69;99260.13;4883992;29;20063;-95
2023/10/10 12:34:46;;;;;;;3.75;2.25;;;;;;;5.95;56.73;99240.63;4894972;29;20045;-90
2023/10/10 12:37:15;;;;;;;5.03;2.90;;;;;;;6.00;58.35;99216.19;4903741;29;20044;-90
2023/10/10 12:39:46;;;;;;;6.78;2.90;;;;;;;5.60;57.21;99177.44;4871798;29;20109;-94
2023/10/10 12:42:16;;;;;;;5.45;2.40;;;;;;;5.71;57.82;99202.56;4902671;29;20029;-93
2023/10/10 12:44:50;;;;;;;11.45;3.13;;;;;;;5.86;57.65;99228.72;4878372;29;20068;-93
2023/10/10 12:47:21;;;;;;;3.33;2.10;;;;;;;5.58;57.56;99201.28;4848519;29;20021;-93
2023/10/10 12:49:56;;;;;;;4.40;2.33;;;;;;;5.57;57.59;99199.69;4876925;29;20031;-94
2023/10/10 12:52:34;;;;;;;5.13;2.38;;;;;;;5.38;58.87;99179.75;4889825;29;20055;-92
2023/10/10 12:55:11;;;;;;;6.07;2.33;;;;;;;5.39;60.76;99212.00;4881685;29;20053;-91
2023/10/10 12:57:39;;;;;;;3.57;2.20;;;;;;;5.12;61.70;99188.03;4863310;29;20112;-91
2023/10/10 13:00:23;;;;;;;4.13;2.30;;;;;;;5.44;62.08;99249.13;4904270;29;20053;-95
2023/10/10 13:03:07;;;;;;;3.78;2.47;;;;;;;5.29;61.11;99247.28;4902343;29;20073;-92
2023/10/10 13:05:36;;;;;;;5.50;2.20;;;;;;;5.39;60.94;99255.34;4872724;29;20048;-94
2023/10/10 13:08:14;;;;;;;4.18;2.05;;;;;;;5.20;61.87;99216.47;4904341;29;20025;-93
2023/10/10 13:11:04;;;;;;;4.25;2.38;;;;;;;5.50;62.20;99252.63;4887748;29;20057;-89
2023/10/10 13:13:45;;;;;;;8.88;2.60;;;;;;;5.49;61.05;99240.13;4904430;29;20079;-92
2023/10/10 13:19:20;;;;;;;4.15;2.10;;;;;;;5.98;61.10;99307.91;4902944;29;20108;-91
2023/10/10 13:22:02;;;;;;;5.22;2.65;;;;;;;5.76;61.12;99267.63;4901261;29;20060;-88
2023/10/10 13:24:28;;;;;;;5.88;2.25;;;;;;;6.12;61.10;99305.34;4882684;29;20399;-92
2023/10/10 13:26:54;;;;;;;5.50;2.60;;;;;;;5.87;60.51;99274.56;4868627;29;20041;-87
2023/10/10 13:29:23;;;;;;;5.80;2.40;;;;;;;5.98;59.37;99329.59;4898409;29;20093;-92
2023/10/10 13:31:52;;;;;;;5.45;2.60;;;;;;;5.65;61.07;99276.91;4910519;29;20057;-89
2023/10/10 13:34:22;;;;;;;8.18;3.20;;;;;;;5.64;60.88;99307.84;4889025;29;20503;-88
2023/10/10 13:36:49;;;;;;;6.88;3.05;;;;;;;5.44;60.34;99291.69;4904546;29;20037;-90
2023/10/10 13:39:33;;;;;;;7.13;2.60;;;;;;;5.65;61.38;99321.09;4902173;29;20100;-87
2023/10/10 13:42:01;;;;;;;3.92;2.58;;;;;;;5.69;61.12;99342.22;4893664;29;20063;-92
2023/10/10 13:44:33;;;;;;;4.95;1.70;;;;;;;5.56;61.59;99327.38;4859945;29;20056;-90
2023/10/10 13:47:07;;;;;;;2.95;1.98;;;;;;;5.13;62.85;99314.31;4892643;29;20056;-88
2023/10/10 13:49:34;;;;;;;2.95;2.20;;;;;;;5.13;65.53;99349.56;4908550;29;20503;-91
2023/10/10 13:52:04;;;;;;;5.72;3.00;;;;;;;4.97;66.04;99320.88;4901300;29;20103;-91
2023/10/10 13:54:31;;;;;;;6.10;2.85;;;;;;;5.00;65.90;99341.16;4908592;29;20047;-90
2023/10/10 13:57:00;;;;;;;4.20;2.10;;;;;;;4.80;65.64;99325.78;4887042;29;20464;-91
2023/10/10 13:59:27;;;;;;;8.02;2.20;;;;;;;4.92;66.05;99367.75;4887252;29;20426;-91
2023/10/10 14:01:58;;;;;;;5.65;2.40;;;;;;;4.60;65.77;99310.38;4856950;29;20088;-90
2023/10/10 14:04:38;;;;;;;4.20;3.00;;;;;;;4.80;65.40;99339.31;4904864;29;20499;-88
2023/10/10 14:07:07;;;;;;;5.07;2.42;;;;;;;4.62;65.49;99327.19;4908581;29;20047;-89
2023/10/10 14:09:36;;;;;;;9.63;4.65;;;;;;;4.62;65.92;99319.88;4891081;29;20045;-92
2023/10/10 14:12:04;;;;;;;5.95;3.58;;;;;;;4.73;65.12;99342.31;4889674;29;20125;-89
2023/10/10 14:14:32;;;;;;;7.78;3.13;;;;;;;4.82;64.85;99367.75;4888139;29;20049;-88
2023/10/10 14:16:59;;;;;;;5.28;2.53;;;;;;;4.89;64.82;99368.28;4909165;29;20036;-90
2023/10/10 14:19:25;;;;;;;5.18;2.20;;;;;;;5.02;63.76;99383.16;4908751;29;20077;-91
2023/10/10 14:21:52;;;;;;;10.63;2.55;;;;;;;5.02;63.57;99371.50;4889300;29;20526;-90
2023/10/10 14:24:20;;;;;;;3.83;2.03;;;;;;;5.20;62.86;99370.94;4892849;29;20052;-90
2023/10/10 14:26:48;;;;;;;7.28;2.25;;;;;;;4.89;62.75;99345.81;4861529;29;20119;-87
2023/10/10 14:29:44;;;;;;;4.05;2.50;;;;;;;5.29;61.91;99409.09;4909069;29;20044;-88
2023/10/10 14:32:11;;;;;;;5.72;2.53;;;;;;;5.03;61.90;99394.81;4896220;29;20062;-89
2023/10/10 14:34:38;;;;;;;3.97;2.45;;;;;;;5.11;61.56;99400.47;4875484;29;20049;-89
2023/10/10 14:37:05;;;;;;;9.38;2.78;;;;;;;5.34;61.71;99423.47;4902967;29;20037;-86
2023/10/10 14:39:44;;;;;;;3.60;2.28;;;;;;;5.34;61.33;99396.34;4856630;29;20044;-91
2023/10/10 14:42:13;;;;;;;9.20;2.67;;;;;;;5.14;60.84;99407.25;4901820;29;20043;-90
2023/10/10 14:44:40;;;;;;;5.10;2.88;;;;;;;5.21;60.66;99402.34;4888683;29;20387;-87
2023/10/10 14:47:09;;;;;;;4.95;2.40;;;;;;;5.34;60.21;99439.72;4889876;29;20045;-93
2023/10/10 14:49:38;;;;;;;7.25;1.65;;;;;;;4.82;60.44;99386.72;4905240;29;20104;-89
2023/10/10 14:52:05;;;;;;;3.58;1.83;;;;;;;4.90;60.79;99409.72;4906977;29;20045;-92
2023/10/10 14:54:40;;;;;;;8.70;2.55;;;;;;;4.64;60.89;99371.84;4908262;29;20053;-92
2023/10/10 14:57:10;;;;;;;5.43;2.30;;;;;;;4.67;60.80;99397.59;4909246;29;20056;-92